Alpena, Michigan
Current Conditions -  °F | °C
As of 6:29 AM on Saturday 25 Oct 2014 (Local Time) from KAPN Reporting Station
Broken Clouds Broken Clouds  
Wind Chill: 11°   Ceiling: 4700
Heat Index: 11°   Visibility: 10mi
Dew Point:   Wind: 13mph
Humidity: 86%   Direction: 240°WSW
Pressure: 29.69"   Gusts: 22mph
Location:  45.06°N, 83.44°W
Report Text: KAPN 251029Z AUTO 24011G19KT 10SM SCT016 BKN047 11/09 A2969 RMK AO2 T01110089
Loading
Personal Weather Stations






























Interactive Weather Map
Tropical Storm Tracking
New forecast layout! Learn more

10-Day Weather Forecast

Advertisements
Track Severe Weather on mobile